Time;durP1;ratioP1;P1;durP2;ratioP2;P2;SDS_P1;SDS_P2;PMS_P1;PMS_P2;Temp;Humidity;BMP_temperature;BMP_pressure;BME280_temperature;BME280_humidity;BME280_pressure;Samples;Min_cycle;Max_cycle;Signal;HPM_P1;HPM_P2
2022/02/16 00:00:10;;;;;;;5.97;4.90;;;;;;;16.19;51.16;100120.64;1779109;79;21003;-62
2022/02/16 00:02:39;;;;;;;5.53;4.67;;;;;;;16.16;51.13;100114.84;1770631;80;21062;-61
2022/02/16 00:05:08;;;;;;;6.50;5.00;;;;;;;16.11;51.14;100112.76;1779982;80;21070;-63
2022/02/16 00:07:39;;;;;;;6.30;4.62;;;;;;;16.07;51.14;100108.30;1767967;79;21033;-63
2022/02/16 00:10:07;;;;;;;6.10;4.90;;;;;;;16.04;51.12;100109.19;1776805;79;20982;-62
2022/02/16 00:12:33;;;;;;;7.15;4.83;;;;;;;16.01;51.13;100107.74;1771124;80;21052;-62
2022/02/16 00:15:00;;;;;;;6.60;5.40;;;;;;;15.96;51.14;100101.30;1754291;80;21525;-62
2022/02/16 00:17:26;;;;;;;6.40;4.97;;;;;;;15.93;51.12;100101.16;1712362;83;21114;-61
2022/02/16 00:19:54;;;;;;;6.60;5.15;;;;;;;15.89;51.14;100098.04;1738052;82;21023;-62
2022/02/16 00:22:20;;;;;;;5.75;4.42;;;;;;;15.86;51.12;100096.28;1709504;82;21099;-62
2022/02/16 00:24:47;;;;;;;7.30;4.60;;;;;;;15.83;51.10;100086.77;1729625;82;21007;-64
2022/02/16 00:27:15;;;;;;;5.87;4.65;;;;;;;15.80;51.13;100076.95;1730448;81;21049;-64
2022/02/16 00:29:42;;;;;;;6.20;4.35;;;;;;;15.76;51.14;100076.53;1773434;79;22287;-62
2022/02/16 00:32:09;;;;;;;5.17;4.58;;;;;;;15.72;51.12;100081.89;1772300;79;20991;-62
2022/02/16 00:34:36;;;;;;;5.40;4.78;;;;;;;15.70;51.10;100086.62;1774951;79;21097;-62
2022/02/16 00:37:04;;;;;;;6.08;5.47;;;;;;;15.66;51.12;100082.16;1772249;79;20967;-63
2022/02/16 00:39:30;;;;;;;5.15;4.42;;;;;;;15.63;51.16;100085.76;1753952;80;20987;-62
2022/02/16 00:41:57;;;;;;;4.83;4.15;;;;;;;15.60;51.13;100088.81;1728683;81;22031;-63
2022/02/16 00:44:23;;;;;;;5.37;4.08;;;;;;;15.57;51.14;100086.50;1704516;81;21035;-62
2022/02/16 00:46:50;;;;;;;6.90;4.62;;;;;;;15.53;51.14;100084.75;1704199;81;21546;-62
2022/02/16 00:49:17;;;;;;;6.10;4.80;;;;;;;15.51;51.14;100081.41;1722060;80;21071;-62
2022/02/16 00:51:44;;;;;;;5.75;4.50;;;;;;;15.48;51.13;100075.11;1725001;80;21586;-61
2022/02/16 00:54:11;;;;;;;5.58;4.55;;;;;;;15.43;51.14;100075.70;1705034;82;21098;-62
2022/02/16 00:56:40;;;;;;;5.45;4.50;;;;;;;15.41;51.15;100064.33;1707117;82;21077;-62
2022/02/16 00:59:06;;;;;;;6.28;4.70;;;;;;;15.39;51.14;100064.20;1732366;82;21534;-63
2022/02/16 01:01:33;;;;;;;4.20;3.80;;;;;;;15.36;51.15;100064.09;1706433;82;21100;-60
2022/02/16 01:03:59;;;;;;;6.62;4.58;;;;;;;15.33;51.17;100068.48;1722854;81;21644;-61
2022/02/16 01:06:26;;;;;;;5.33;4.58;;;;;;;15.30;51.16;100067.53;1692895;82;21310;-62
2022/02/16 01:08:54;;;;;;;5.00;4.50;;;;;;;15.26;51.17;100068.42;1719462;82;21082;-62
2022/02/16 01:11:25;;;;;;;4.95;4.45;;;;;;;15.25;51.18;100071.28;1724666;82;21094;-64
2022/02/16 01:13:49;;;;;;;5.83;4.95;;;;;;;15.22;51.18;100064.96;1727284;81;21034;-62
2022/02/16 01:16:17;;;;;;;4.75;4.03;;;;;;;15.19;51.20;100062.16;1710729;82;21121;-61
2022/02/16 01:18:45;;;;;;;5.30;4.10;;;;;;;15.17;51.16;100052.69;1717870;80;21151;-62
2022/02/16 01:21:12;;;;;;;5.65;4.22;;;;;;;15.13;51.17;100051.71;1710367;82;21491;-62
2022/02/16 01:23:40;;;;;;;4.87;4.33;;;;;;;15.11;51.19;100055.09;1729194;81;21018;-61
2022/02/16 01:26:09;;;;;;;5.22;4.22;;;;;;;15.09;51.19;100050.95;1712104;80;21059;-63
2022/02/16 01:28:37;;;;;;;7.20;5.03;;;;;;;15.05;51.19;100047.83;1726494;82;21066;-63
2022/02/16 01:31:04;;;;;;;4.47;3.92;;;;;;;15.03;51.20;100039.16;1730923;80;21056;-62
2022/02/16 01:33:32;;;;;;;5.25;4.40;;;;;;;15.00;51.21;100040.05;1726689;80;21113;-61
2022/02/16 01:35:58;;;;;;;4.72;4.17;;;;;;;14.98;51.21;100036.22;1729714;81;21039;-62
2022/02/16 01:38:25;;;;;;;5.67;4.50;;;;;;;14.94;51.22;100037.10;1704133;82;21070;-62
2022/02/16 01:40:56;;;;;;;6.60;5.08;;;;;;;14.89;51.25;100027.98;1721866;82;21030;-62
2022/02/16 01:43:23;;;;;;;7.30;4.87;;;;;;;14.88;51.24;100029.84;1662774;82;21531;-61
2022/02/16 01:45:50;;;;;;;5.05;4.35;;;;;;;14.86;51.24;100028.38;1718765;82;21023;-62
2022/02/16 01:48:18;;;;;;;4.95;4.22;;;;;;;14.83;51.26;100023.40;1717916;80;21051;-62
2022/02/16 01:50:45;;;;;;;5.22;4.10;;;;;;;14.80;51.27;100019.27;1728823;80;21043;-62
2022/02/16 01:53:12;;;;;;;5.33;4.45;;;;;;;14.78;51.27;100017.80;1704593;82;21026;-61
2022/02/16 01:55:38;;;;;;;4.90;4.35;;;;;;;14.76;51.28;100019.33;1703161;82;21078;-62
2022/02/16 01:58:05;;;;;;;4.67;3.90;;;;;;;14.73;51.29;100021.84;1709963;82;21079;-61
2022/02/16 02:00:36;;;;;;;4.70;4.08;;;;;;;14.71;51.31;100019.87;1707426;82;21050;-61
2022/02/16 02:03:03;;;;;;;4.50;3.83;;;;;;;14.68;51.30;100010.06;1722156;80;21046;-61
2022/02/16 02:05:51;;;;;;;4.45;4.03;;;;;;;14.66;51.31;100006.74;1726354;82;21003;-62
2022/02/16 02:08:21;;;;;;;5.28;4.12;;;;;;;14.63;51.33;100011.15;1712619;81;21837;-61
2022/02/16 02:10:54;;;;;;;5.85;4.60;;;;;;;14.61;51.35;100014.00;1705654;82;22137;-62
2022/02/16 02:13:21;;;;;;;5.55;4.90;;;;;;;14.58;51.36;100011.70;1724554;81;21070;-62
2022/02/16 02:15:49;;;;;;;5.55;4.70;;;;;;;14.56;51.35;100011.02;1721853;80;21134;-61
2022/02/16 02:18:23;;;;;;;6.35;4.83;;;;;;;14.53;51.37;100004.22;1719228;80;21022;-60
2022/02/16 02:20:50;;;;;;;5.05;4.17;;;;;;;14.50;51.37;99999.23;1731618;80;21815;-63
2022/02/16 02:23:18;;;;;;;5.20;4.40;;;;;;;14.48;51.41;100002.60;1731311;81;20983;-62
2022/02/16 02:25:51;;;;;;;5.95;4.65;;;;;;;14.46;51.41;100001.96;1711926;82;21452;-61
2022/02/16 02:28:21;;;;;;;4.90;4.40;;;;;;;14.45;51.43;99996.31;1728827;80;21030;-62
2022/02/16 02:30:48;;;;;;;6.33;4.95;;;;;;;14.43;51.41;99987.66;1717975;82;21062;-62
2022/02/16 02:33:15;;;;;;;5.37;4.83;;;;;;;14.40;51.44;99991.20;1718939;81;21112;-62
2022/02/16 02:35:42;;;;;;;5.40;4.03;;;;;;;14.39;51.45;99989.53;1719956;80;21939;-62
2022/02/16 02:38:08;;;;;;;6.53;4.65;;;;;;;14.36;51.44;99988.89;1682551;83;21061;-62
2022/02/16 02:40:35;;;;;;;5.00;4.33;;;;;;;14.35;51.45;99995.27;1718229;82;21063;-62
2022/02/16 02:43:04;;;;;;;5.08;4.53;;;;;;;14.34;51.45;99996.78;1733483;81;21541;-61
2022/02/16 02:45:32;;;;;;;5.12;4.25;;;;;;;14.32;51.46;100002.31;1693336;82;21165;-62
2022/02/16 02:47:59;;;;;;;5.05;4.17;;;;;;;14.31;51.46;100001.16;1713460;82;21042;-62
2022/02/16 02:50:25;;;;;;;4.72;4.22;;;;;;;14.29;51.48;99997.36;1720534;80;21586;-63
2022/02/16 02:52:51;;;;;;;4.55;4.15;;;;;;;14.27;51.50;99997.20;1749377;80;21064;-62
2022/02/16 02:55:19;;;;;;;5.72;4.47;;;;;;;14.25;51.47;100000.05;1747478;80;21478;-63
2022/02/16 02:57:46;;;;;;;4.95;4.12;;;;;;;14.23;51.48;100000.75;1768134;80;22058;-62
2022/02/16 03:00:15;;;;;;;5.15;4.65;;;;;;;14.22;51.48;99992.94;1768759;79;20990;-63
2022/02/16 03:02:42;;;;;;;5.75;4.55;;;;;;;14.20;51.47;99993.12;1778171;80;22246;-63
2022/02/16 03:05:10;;;;;;;4.67;4.28;;;;;;;14.18;51.48;99986.28;1766337;80;21262;-61
2022/02/16 03:07:38;;;;;;;5.80;4.80;;;;;;;14.15;51.51;99992.84;1761074;80;21570;-62
2022/02/16 03:10:06;;;;;;;4.40;3.90;;;;;;;14.13;51.51;99988.19;1780208;80;21113;-62
2022/02/16 03:15:18;;;;;;;7.00;4.75;;;;;;;14.14;51.53;99985.85;1789898;78;28605;-62
2022/02/16 03:17:48;;;;;;;5.50;4.95;;;;;;;14.09;51.54;99986.91;1749168;81;20989;-61
2022/02/16 03:20:15;;;;;;;4.80;4.30;;;;;;;14.08;51.52;99985.23;1750907;81;21213;-62
2022/02/16 03:22:42;;;;;;;5.97;4.67;;;;;;;14.07;51.52;99983.08;1736472;81;21012;-62
2022/02/16 03:25:10;;;;;;;5.12;4.60;;;;;;;14.05;51.53;99987.77;1730103;80;21506;-62
2022/02/16 03:27:37;;;;;;;6.42;4.75;;;;;;;14.04;51.55;99979.94;1687035;83;21057;-63
2022/02/16 03:30:08;;;;;;;4.90;4.40;;;;;;;14.02;51.55;99974.77;1702615;83;21082;-63
2022/02/16 03:32:37;;;;;;;5.50;4.90;;;;;;;14.01;51.56;99973.13;1698130;84;21111;-62
2022/02/16 03:35:05;;;;;;;5.55;4.55;;;;;;;14.00;51.57;99976.80;1659295;84;21115;-61
2022/02/16 03:37:31;;;;;;;4.83;4.30;;;;;;;13.98;51.55;99970.82;1672487;85;21596;-61
2022/02/16 03:39:58;;;;;;;5.10;4.55;;;;;;;13.96;51.59;99976.38;1672836;84;21041;-62
2022/02/16 03:42:25;;;;;;;5.47;4.60;;;;;;;13.95;51.58;99972.54;1686001;84;21341;-61
2022/02/16 03:44:51;;;;;;;5.20;4.70;;;;;;;13.93;51.59;99969.23;1673122;84;21265;-62
2022/02/16 03:47:20;;;;;;;6.40;4.92;;;;;;;13.92;51.60;99968.38;1650986;86;21541;-63
2022/02/16 03:49:46;;;;;;;5.78;4.67;;;;;;;13.90;51.61;99968.25;1663038;84;21497;-62
2022/02/16 03:52:16;;;;;;;4.97;4.45;;;;;;;13.88;51.59;99961.75;1693993;84;21035;-61
2022/02/16 03:54:43;;;;;;;6.15;4.85;;;;;;;13.88;51.62;99970.28;1698153;84;21125;-62
2022/02/16 03:57:10;;;;;;;6.40;4.83;;;;;;;13.86;51.63;99967.78;1678072;84;21906;-62
2022/02/16 03:59:36;;;;;;;4.60;4.17;;;;;;;13.84;51.64;99960.47;1680895;83;21025;-62
2022/02/16 04:02:04;;;;;;;5.25;4.45;;;;;;;13.83;51.66;99960.16;1657927;85;21033;-62
2022/02/16 04:04:31;;;;;;;5.37;4.62;;;;;;;13.82;51.66;99961.67;1694178;83;21093;-62
2022/02/16 04:06:58;;;;;;;4.90;4.50;;;;;;;13.81;51.67;99953.32;1704336;83;22282;-65
2022/02/16 04:09:26;;;;;;;6.78;5.22;;;;;;;13.80;51.67;99951.17;1667786;82;21310;-61
2022/02/16 04:11:53;;;;;;;5.72;5.00;;;;;;;13.79;51.65;99949.53;1697628;83;21577;-61
2022/02/16 04:14:20;;;;;;;5.25;4.58;;;;;;;13.77;51.67;99948.85;1694173;83;21012;-62
2022/02/16 04:16:47;;;;;;;6.30;5.12;;;;;;;13.76;51.68;99955.22;1736351;82;21598;-62
2022/02/16 04:19:14;;;;;;;5.90;5.12;;;;;;;13.74;51.69;99944.72;1727406;82;21034;-63
2022/02/16 04:21:41;;;;;;;5.95;5.25;;;;;;;13.74;51.69;99947.91;1740368;80;22342;-62
2022/02/16 04:24:08;;;;;;;5.58;4.60;;;;;;;13.72;51.69;99954.75;1722061;82;21078;-62
2022/02/16 04:26:35;;;;;;;5.20;4.65;;;;;;;13.71;51.73;99952.27;1721821;82;21022;-61
2022/02/16 04:29:02;;;;;;;5.37;4.87;;;;;;;13.69;51.72;99941.76;1725009;82;21041;-62
2022/02/16 04:31:30;;;;;;;6.15;4.62;;;;;;;13.69;51.73;99943.61;1731075;80;21029;-62
2022/02/16 04:33:56;;;;;;;7.25;5.22;;;;;;;13.67;51.76;99934.44;1725784;82;21138;-62
2022/02/16 04:36:26;;;;;;;5.90;4.85;;;;;;;13.67;51.76;99941.63;1732536;81;21007;-63
2022/02/16 04:38:57;;;;;;;5.50;4.70;;;;;;;13.65;51.77;99940.98;1732751;81;21101;-62
2022/02/16 04:41:26;;;;;;;5.53;4.85;;;;;;;13.64;51.75;99942.84;1722960;80;21026;-63
2022/02/16 04:43:52;;;;;;;5.17;4.67;;;;;;;13.64;51.76;99942.02;1732973;82;21608;-62
2022/02/16 04:46:19;;;;;;;4.80;4.33;;;;;;;13.62;51.75;99936.00;1729420;82;21162;-62
2022/02/16 04:48:46;;;;;;;6.87;4.83;;;;;;;13.62;51.77;99938.67;1733953;82;21444;-62
2022/02/16 04:51:13;;;;;;;7.30;5.17;;;;;;;13.59;51.78;99938.55;1728571;82;21028;-62
2022/02/16 04:53:39;;;;;;;6.10;4.78;;;;;;;13.58;51.79;99940.91;1727909;82;21566;-62
2022/02/16 04:56:07;;;;;;;6.22;5.22;;;;;;;13.57;51.79;99938.72;1736888;82;21128;-61
2022/02/16 04:58:35;;;;;;;5.67;4.62;;;;;;;13.57;51.79;99939.23;1722266;80;21141;-63
2022/02/16 05:01:02;;;;;;;5.67;5.08;;;;;;;13.56;51.80;99942.93;1732513;80;21004;-63
2022/02/16 05:03:30;;;;;;;6.35;4.87;;;;;;;13.54;51.81;99947.11;1730270;81;21042;-62
2022/02/16 05:05:57;;;;;;;6.50;5.05;;;;;;;13.53;51.80;99950.77;1740464;82;21577;-62
2022/02/16 05:08:25;;;;;;;6.10;4.92;;;;;;;13.52;51.84;99947.80;1725086;82;21800;-62
2022/02/16 05:10:52;;;;;;;7.15;5.25;;;;;;;13.52;51.81;99945.13;1734074;82;21082;-62
2022/02/16 05:13:20;;;;;;;6.60;5.12;;;;;;;13.50;51.82;99948.48;1742348;81;21051;-62
2022/02/16 05:15:46;;;;;;;5.47;4.87;;;;;;;13.49;51.84;99953.48;1718798;80;21011;-62
2022/02/16 05:18:13;;;;;;;6.03;5.40;;;;;;;13.48;51.82;99949.17;1739705;82;21035;-62
2022/02/16 05:20:44;;;;;;;6.15;5.42;;;;;;;13.47;51.83;99960.84;1731561;82;21002;-64
2022/02/16 05:23:13;;;;;;;6.40;5.05;;;;;;;13.46;51.84;99967.22;1727535;81;21616;-62
2022/02/16 05:25:39;;;;;;;6.85;5.37;;;;;;;13.45;51.85;99972.22;1717259;80;21046;-62
2022/02/16 05:28:07;;;;;;;6.35;5.28;;;;;;;13.45;51.85;99969.55;1738443;82;22074;-62
2022/02/16 05:30:34;;;;;;;7.30;5.90;;;;;;;13.44;51.83;99971.88;1730421;81;21093;-61
2022/02/16 05:33:01;;;;;;;6.30;5.50;;;;;;;13.44;51.84;99979.06;1728260;82;21077;-64
2022/02/16 05:35:30;;;;;;;6.15;5.30;;;;;;;13.43;51.84;99966.23;1729145;82;21138;-62
2022/02/16 05:37:56;;;;;;;6.28;5.30;;;;;;;13.42;51.84;99978.41;1706678;82;21002;-62
2022/02/16 05:40:23;;;;;;;6.00;5.10;;;;;;;13.41;51.85;99972.77;1702917;82;21105;-62
2022/02/16 05:42:50;;;;;;;5.83;4.83;;;;;;;13.41;51.87;99978.11;1741230;82;21551;-61
2022/02/16 05:45:16;;;;;;;6.30;5.30;;;;;;;13.41;51.85;99976.77;1710361;80;21026;-63
2022/02/16 05:47:43;;;;;;;7.33;5.60;;;;;;;13.40;51.85;99975.09;1732346;82;21098;-62
2022/02/16 05:50:10;;;;;;;5.75;5.15;;;;;;;13.39;51.85;99964.94;1729629;82;21491;-61
2022/02/16 05:52:37;;;;;;;7.72;6.87;;;;;;;13.37;51.84;99962.95;1716057;82;21090;-61
2022/02/16 05:55:04;;;;;;;6.22;5.62;;;;;;;13.37;51.86;99957.11;1720670;82;21597;-63
2022/02/16 05:57:32;;;;;;;7.12;5.80;;;;;;;13.37;51.86;99954.95;1720373;80;21049;-63
2022/02/16 05:59:59;;;;;;;7.00;6.10;;;;;;;13.36;51.85;99945.27;1743611;81;21178;-63
2022/02/16 06:02:25;;;;;;;6.65;5.50;;;;;;;13.36;51.86;99945.27;1729819;82;21117;-62
2022/02/16 06:04:52;;;;;;;6.58;5.95;;;;;;;13.35;51.86;99944.45;1742944;81;21109;-62
2022/02/16 06:07:18;;;;;;;6.50;5.42;;;;;;;13.33;51.88;99934.98;1719815;82;21199;-61
2022/02/16 06:09:45;;;;;;;6.47;5.62;;;;;;;13.33;51.88;99933.65;1735587;82;21690;-61
2022/02/16 06:12:11;;;;;;;5.17;4.40;;;;;;;13.33;51.88;99941.66;1728675;80;21139;-62
2022/02/16 06:14:38;;;;;;;7.47;5.80;;;;;;;13.34;51.88;99945.96;1734389;80;21061;-61
2022/02/16 06:17:06;;;;;;;6.65;5.65;;;;;;;13.32;51.86;99944.80;1742080;81;21008;-62
2022/02/16 06:19:33;;;;;;;5.85;5.30;;;;;;;13.32;51.88;99936.80;1747888;81;21037;-62
2022/02/16 06:22:01;;;;;;;6.65;5.92;;;;;;;13.33;51.86;99933.13;1735324;80;21010;-62
2022/02/16 06:24:27;;;;;;;5.95;5.35;;;;;;;13.32;51.87;99930.13;1747260;81;21063;-62
2022/02/16 06:26:55;;;;;;;6.53;5.53;;;;;;;13.32;51.88;99931.98;1748668;81;21057;-61
2022/02/16 06:29:21;;;;;;;6.47;4.90;;;;;;;13.31;51.87;99929.00;1723620;81;21018;-61
2022/02/16 06:31:55;;;;;;;6.10;5.50;;;;;;;13.31;51.87;99927.15;1717406;81;21526;-63
2022/02/16 06:34:22;;;;;;;6.20;5.50;;;;;;;13.31;51.87;99919.66;1727725;81;20996;-62
2022/02/16 06:36:50;;;;;;;7.05;5.37;;;;;;;13.31;51.87;99920.99;1709208;81;21903;-63
2022/02/16 06:39:17;;;;;;;6.75;5.62;;;;;;;13.29;51.86;99924.28;1739365;81;21054;-61
2022/02/16 06:41:44;;;;;;;6.60;5.85;;;;;;;13.30;51.88;99919.32;1734214;81;21538;-63
2022/02/16 06:44:10;;;;;;;6.28;5.37;;;;;;;13.29;51.86;99917.62;1737147;81;21062;-62
2022/02/16 06:46:39;;;;;;;7.60;5.83;;;;;;;13.28;51.85;99923.98;1755613;81;20990;-62
2022/02/16 06:49:05;;;;;;;6.85;6.12;;;;;;;13.28;51.87;99917.31;1755725;81;21117;-63
2022/02/16 06:51:33;;;;;;;7.05;6.12;;;;;;;13.28;51.87;99919.98;1753590;80;20979;-63
2022/02/16 06:54:00;;;;;;;6.37;5.78;;;;;;;13.28;51.87;99925.31;1727928;81;21052;-62
2022/02/16 06:56:28;;;;;;;7.33;5.37;;;;;;;13.27;51.87;99920.97;1742418;80;21054;-61
2022/02/16 06:59:02;;;;;;;7.15;5.95;;;;;;;13.27;51.88;99928.98;1749834;81;21017;-62
2022/02/16 07:01:28;;;;;;;6.80;5.70;;;;;;;13.26;51.88;99920.67;1746883;80;21986;-62
2022/02/16 07:03:56;;;;;;;6.62;5.92;;;;;;;13.25;51.88;99918.99;1756444;80;21025;-64
2022/02/16 07:06:24;;;;;;;6.35;5.65;;;;;;;13.25;51.89;99913.66;1752699;81;21026;-62
2022/02/16 07:08:51;;;;;;;7.50;6.05;;;;;;;13.24;51.89;99908.02;1740758;81;21497;-61
2022/02/16 07:11:18;;;;;;;5.87;5.22;;;;;;;13.23;51.88;99903.67;1736397;81;21125;-65
2022/02/16 07:13:45;;;;;;;6.97;5.08;;;;;;;13.23;52.22;99902.34;1735504;80;21489;-65
2022/02/16 07:16:11;;;;;;;5.97;5.10;;;;;;;13.24;54.09;99903.50;1728901;80;21041;-66
2022/02/16 07:18:40;;;;;;;5.67;5.05;;;;;;;13.26;56.07;99905.99;1748862;81;21106;-64
2022/02/16 07:21:11;;;;;;;5.65;4.85;;;;;;;13.27;56.57;99903.15;1741348;81;21089;-62
2022/02/16 07:23:38;;;;;;;6.30;5.70;;;;;;;13.27;56.62;99901.81;1739323;81;21101;-64
2022/02/16 07:26:06;;;;;;;6.70;5.40;;;;;;;13.28;56.54;99897.30;1733368;81;21022;-64
2022/02/16 07:28:35;;;;;;;5.70;4.70;;;;;;;13.28;56.39;99897.30;1735379;80;21041;-63
2022/02/16 07:31:01;;;;;;;6.65;5.92;;;;;;;13.28;56.24;99901.30;1747981;80;21092;-65
2022/02/16 07:33:28;;;;;;;6.53;5.80;;;;;;;13.27;56.08;99893.81;1756680;80;21500;-64
2022/02/16 07:35:54;;;;;;;6.50;5.55;;;;;;;13.26;55.91;99897.48;1738475;81;21018;-64
2022/02/16 07:38:21;;;;;;;5.87;5.25;;;;;;;13.26;55.77;99892.66;1747892;80;22028;-64
2022/02/16 07:40:48;;;;;;;7.60;5.25;;;;;;;13.25;55.59;99885.16;1734377;81;21041;-66
2022/02/16 07:43:16;;;;;;;14.18;7.85;;;;;;;13.25;55.47;99886.98;1739234;81;21054;-64
2022/02/16 07:46:04;;;;;;;17.00;8.30;;;;;;;13.29;64.80;99837.58;1732273;80;21071;-67
2022/02/16 07:48:34;;;;;;;18.65;8.80;;;;;;;13.55;66.90;99831.31;1751131;81;21025;-67
2022/02/16 07:51:02;;;;;;;16.93;9.30;;;;;;;13.71;64.96;99830.30;1751391;80;21103;-65
2022/02/16 07:53:30;;;;;;;16.55;10.20;;;;;;;13.75;64.17;99840.08;1723151;81;21022;-63
2022/02/16 07:55:57;;;;;;;17.07;10.30;;;;;;;13.75;63.42;99836.92;1746304;80;21061;-66
2022/02/16 07:58:24;;;;;;;16.17;9.95;;;;;;;13.76;62.69;99836.41;1745961;81;21049;-67
2022/02/16 08:00:50;;;;;;;15.15;10.93;;;;;;;13.74;62.04;99832.58;1734167;81;21093;-67
2022/02/16 08:03:20;;;;;;;16.67;10.90;;;;;;;13.73;61.49;99834.95;1720316;81;21280;-66
2022/02/16 08:05:46;;;;;;;14.85;10.35;;;;;;;13.72;61.00;99829.79;1741869;80;21015;-65
2022/02/16 08:08:15;;;;;;;13.48;10.05;;;;;;;13.70;60.56;99829.15;1743140;81;21081;-65
2022/02/16 08:10:48;;;;;;;16.67;10.50;;;;;;;13.69;60.19;99839.49;1750671;80;21130;-65
2022/02/16 08:13:10;;;;;;;15.15;10.45;;;;;;;13.67;59.91;99823.66;1727099;81;21125;-66
2022/02/16 08:15:45;;;;;;;14.07;10.65;;;;;;;13.66;59.64;99815.86;1737837;80;21151;-66
2022/02/16 08:18:15;;;;;;;15.23;10.28;;;;;;;13.65;59.38;99810.18;1738460;80;21085;-67
2022/02/16 08:20:42;;;;;;;17.55;11.25;;;;;;;13.64;59.48;99816.03;1732888;82;21014;-68
2022/02/16 08:23:19;;;;;;;16.40;10.93;;;;;;;13.64;59.58;99811.22;1718807;82;21050;-68
2022/02/16 08:25:46;;;;;;;16.02;10.75;;;;;;;13.62;59.12;99805.20;1722159;81;21034;-65
2022/02/16 08:28:14;;;;;;;14.78;11.28;;;;;;;13.60;58.64;99800.08;1727883;80;21146;-67
2022/02/16 08:30:41;;;;;;;15.30;11.15;;;;;;;13.58;58.13;99794.09;1736790;80;21049;-69
2022/02/16 08:33:12;;;;;;;16.07;10.55;;;;;;;13.58;57.66;99798.10;1726210;82;21119;-66
2022/02/16 08:35:41;;;;;;;15.68;11.63;;;;;;;13.57;57.31;99800.44;1740939;82;21050;-67
2022/02/16 08:38:07;;;;;;;14.23;10.20;;;;;;;13.56;56.91;99808.14;1729277;80;21569;-67
2022/02/16 08:40:34;;;;;;;14.93;10.63;;;;;;;13.53;56.54;99801.31;1731862;82;21240;-65
2022/02/16 08:43:00;;;;;;;13.38;11.00;;;;;;;13.53;56.28;99800.48;1727617;82;21461;-66
2022/02/16 08:45:27;;;;;;;16.62;12.03;;;;;;;13.51;56.10;99798.52;1737396;80;21022;-66
2022/02/16 08:47:53;;;;;;;16.25;12.73;;;;;;;13.49;55.95;99794.69;1717669;80;21055;-66
2022/02/16 08:50:19;;;;;;;18.57;13.40;;;;;;;13.49;55.75;99796.03;1722002;80;21057;-67
2022/02/16 08:52:47;;;;;;;17.50;13.15;;;;;;;13.47;55.62;99790.05;1738957;80;21028;-66
2022/02/16 08:55:14;;;;;;;14.83;12.80;;;;;;;13.47;55.48;99777.22;1740331;80;21014;-68
2022/02/16 08:57:42;;;;;;;15.45;12.43;;;;;;;13.47;55.32;99774.55;1732148;80;21086;-66
2022/02/16 09:00:10;;;;;;;15.58;12.82;;;;;;;13.46;55.16;99791.08;1733102;80;21051;-65
2022/02/16 09:02:38;;;;;;;15.28;13.08;;;;;;;13.45;55.05;99792.59;1730189;82;21008;-66
2022/02/16 09:05:06;;;;;;;16.25;12.93;;;;;;;13.45;55.00;99793.92;1739305;82;21127;-65
2022/02/16 09:07:34;;;;;;;17.32;12.75;;;;;;;13.44;54.94;99787.73;1739598;80;21007;-66
2022/02/16 09:10:06;;;;;;;16.30;13.13;;;;;;;13.43;54.92;99783.44;1737199;81;21038;-65
2022/02/16 09:12:34;;;;;;;16.17;12.95;;;;;;;13.43;54.91;99782.09;1742102;81;28162;-64
2022/02/16 09:15:02;;;;;;;19.82;14.93;;;;;;;13.43;54.84;99793.28;1744065;80;21019;-65
2022/02/16 09:17:28;;;;;;;16.32;13.83;;;;;;;13.43;54.78;99786.61;1745605;81;21078;-65
2022/02/16 09:19:55;;;;;;;15.23;13.20;;;;;;;13.42;54.71;99787.09;1750628;81;21139;-66
2022/02/16 09:22:22;;;;;;;16.25;14.47;;;;;;;13.42;54.66;99777.76;1748430;80;21085;-63
2022/02/16 09:24:49;;;;;;;18.48;14.38;;;;;;;13.42;54.57;99781.77;1752836;81;21517;-63
2022/02/16 09:27:18;;;;;;;16.45;13.43;;;;;;;13.41;54.58;99784.12;1747502;81;21061;-64
2022/02/16 09:29:46;;;;;;;19.25;15.03;;;;;;;13.40;54.57;99786.45;1738712;80;21186;-63
2022/02/16 09:32:13;;;;;;;15.83;14.13;;;;;;;13.40;54.58;99773.63;1745878;80;21073;-64
2022/02/16 09:34:39;;;;;;;17.98;15.08;;;;;;;13.39;54.53;99770.14;1739923;80;21056;-64
2022/02/16 09:37:06;;;;;;;18.92;14.58;;;;;;;13.38;54.51;99764.47;1738376;80;21490;-64
2022/02/16 09:39:32;;;;;;;16.52;14.07;;;;;;;13.39;54.41;99767.48;1731663;81;21581;-64
2022/02/16 09:42:00;;;;;;;19.05;15.93;;;;;;;13.38;54.35;99768.48;1727289;81;21388;-64
2022/02/16 09:44:35;;;;;;;16.62;14.13;;;;;;;13.38;54.31;99765.80;1736053;80;21017;-64
2022/02/16 09:47:03;;;;;;;16.77;13.78;;;;;;;13.37;54.29;99769.50;1737344;81;21058;-64
2022/02/16 09:49:38;;;;;;;18.02;14.93;;;;;;;13.37;54.31;99766.84;1746007;81;21076;-63
2022/02/16 09:52:01;;;;;;;16.97;14.20;;;;;;;13.36;54.33;99765.16;1737477;81;21687;-65
2022/02/16 09:54:28;;;;;;;16.27;14.58;;;;;;;13.34;54.34;99751.19;1747603;80;21907;-63
2022/02/16 09:56:54;;;;;;;15.68;13.75;;;;;;;13.34;54.36;99750.67;1745763;80;21100;-64
2022/02/16 09:59:20;;;;;;;20.05;14.90;;;;;;;13.34;54.38;99740.00;1727130;81;21100;-65
2022/02/16 10:02:01;;;;;;;16.48;13.88;;;;;;;13.34;54.37;99732.51;1750239;80;22185;-65
2022/02/16 10:04:31;;;;;;;18.15;15.10;;;;;;;13.34;54.37;99729.84;1746473;80;21046;-67
2022/02/16 10:06:58;;;;;;;16.23;14.45;;;;;;;13.34;54.34;99729.84;1748060;80;21068;-65
2022/02/16 10:09:31;;;;;;;16.20;14.05;;;;;;;13.33;54.31;99725.02;1724745;81;21584;-64
2022/02/16 10:12:03;;;;;;;;;;;;;;;13.34;54.29;99723.17;1747987;80;21088;-65
2022/02/16 10:14:35;;;;;;;16.80;14.93;;;;;;;13.34;54.22;99725.84;1741684;81;20195;-65
2022/02/16 10:17:22;;;;;;;17.32;14.15;;;;;;;13.33;54.15;99721.53;1728327;81;21584;-65
2022/02/16 10:20:01;;;;;;;16.95;13.85;;;;;;;13.32;54.11;99707.86;1740418;81;21142;-64
2022/02/16 10:22:39;;;;;;;16.52;13.38;;;;;;;13.32;54.04;99707.86;1740553;80;21017;-67
2022/02/16 10:25:21;;;;;;;16.57;14.35;;;;;;;13.31;54.02;99703.03;1726446;81;21050;-66
2022/02/16 10:28:13;;;;;;;15.63;13.95;;;;;;;13.31;54.02;99691.55;1735573;80;21533;-65
2022/02/16 10:31:02;;;;;;;16.05;14.13;;;;;;;13.31;53.98;99686.21;1744278;81;21081;-65
2022/02/16 10:33:47;;;;;;;18.65;14.78;;;;;;;13.32;53.94;99682.52;1718339;82;21013;-66
2022/02/16 10:36:20;;;;;;;16.97;15.13;;;;;;;13.30;53.92;99682.69;1741339;81;21086;-67
2022/02/16 10:39:04;;;;;;;23.67;17.77;;;;;;;13.29;53.89;99679.69;1746263;81;21093;-65
2022/02/16 10:41:36;;;;;;;20.48;17.52;;;;;;;13.29;53.89;99684.17;1746330;81;21057;-66
2022/02/16 10:44:03;;;;;;;21.40;17.15;;;;;;;13.30;53.90;99681.36;1725715;81;21022;-69
2022/02/16 10:46:30;;;;;;;21.42;17.87;;;;;;;13.29;53.89;99678.84;1645638;81;21095;-64
2022/02/16 10:49:17;;;;;;;21.55;18.35;;;;;;;13.29;53.92;99666.84;1738943;80;21531;-67
2022/02/16 10:51:45;;;;;;;17.75;15.83;;;;;;;13.28;53.90;99659.34;1747413;80;21649;-65
2022/02/16 10:54:18;;;;;;;20.12;16.10;;;;;;;13.28;53.86;99662.53;1749460;80;21066;-65
2022/02/16 10:56:47;;;;;;;18.37;15.98;;;;;;;13.28;53.87;99658.53;1726355;80;21091;-66
2022/02/16 10:59:14;;;;;;;17.90;15.53;;;;;;;13.28;53.85;99659.86;1731248;81;21110;-64
2022/02/16 11:01:41;;;;;;;18.75;15.20;;;;;;;13.27;53.82;99656.38;1735189;81;21034;-64
2022/02/16 11:04:13;;;;;;;16.73;14.13;;;;;;;13.28;53.81;99654.53;1733405;81;21046;-67
2022/02/16 11:06:47;;;;;;;17.50;15.15;;;;;;;13.28;53.79;99695.36;1742827;80;21089;-69
2022/02/16 11:09:18;;;;;;;17.27;15.08;;;;;;;13.28;53.88;99684.69;1731741;81;21093;-71
2022/02/16 11:11:49;;;;;;;17.80;15.90;;;;;;;13.28;53.89;99687.87;1725849;81;21760;-70
2022/02/16 11:14:16;;;;;;;16.85;14.10;;;;;;;13.28;53.86;99694.55;1719548;81;21078;-68
2022/02/16 11:16:45;;;;;;;16.90;15.05;;;;;;;13.27;53.86;99697.73;1713229;80;21580;-71
2022/02/16 11:19:25;;;;;;;18.10;14.03;;;;;;;13.27;53.87;99703.55;1738304;82;21045;-67
2022/02/16 11:22:07;;;;;;;16.75;14.93;;;;;;;13.27;53.84;99702.21;1724580;82;21608;-73
2022/02/16 11:24:43;;;;;;;16.50;14.25;;;;;;;13.25;53.81;99700.23;1729663;82;21123;-67
2022/02/16 11:27:33;;;;;;;15.75;14.10;;;;;;;13.24;53.81;99696.75;1727814;82;21033;-69
2022/02/16 11:30:05;;;;;;;17.85;13.98;;;;;;;13.23;53.81;99697.78;1738327;80;21093;-75
2022/02/16 11:32:36;;;;;;;16.90;14.13;;;;;;;13.23;53.78;99699.60;1747206;81;21121;-70
2022/02/16 11:35:26;;;;;;;16.32;14.23;;;;;;;13.22;53.75;99692.11;1725638;82;21061;-71